Time;durP1;ratioP1;P1;durP2;ratioP2;P2;SDS_P1;SDS_P2;PMS_P1;PMS_P2;Temp;Humidity;BMP_temperature;BMP_pressure;BME280_temperature;BME280_humidity;BME280_pressure;Samples;Min_cycle;Max_cycle;Signal;HPM_P1;HPM_P2
2022/09/10 00:02:11;;;;;;;14.30;5.78;;;;;;;7.20;65.14;100634.88;5004731;28;20477;-70
2022/09/10 00:04:38;;;;;;;12.15;5.10;;;;;;;7.23;65.12;100637.06;4994032;28;20109;-71
2022/09/10 00:07:05;;;;;;;15.00;5.68;;;;;;;7.19;64.88;100644.28;4995372;28;20050;-71
2022/09/10 00:09:32;;;;;;;14.02;5.82;;;;;;;7.16;64.58;100639.31;4995780;28;20042;-71
2022/09/10 00:11:59;;;;;;;11.93;5.57;;;;;;;7.11;64.68;100631.84;4995083;28;20062;-70
2022/09/10 00:14:26;;;;;;;15.52;5.20;;;;;;;7.11;64.93;100642.13;4994989;28;20054;-70
2022/09/10 00:16:53;;;;;;;11.85;5.75;;;;;;;7.10;65.05;100634.91;4995202;28;20108;-69
2022/09/10 00:19:21;;;;;;;14.70;5.65;;;;;;;7.06;65.35;100633.81;4995288;28;20189;-70
2022/09/10 00:21:49;;;;;;;18.23;5.50;;;;;;;7.06;64.86;100639.34;5002153;28;20077;-71
2022/09/10 00:24:16;;;;;;;16.05;4.80;;;;;;;7.02;65.37;100638.28;5014850;28;20053;-70
2022/09/10 00:26:43;;;;;;;9.60;4.70;;;;;;;7.00;65.33;100640.50;5013549;28;20532;-71
2022/09/10 00:29:11;;;;;;;11.95;5.38;;;;;;;6.94;65.45;100642.47;5014302;28;20052;-70
2022/09/10 00:31:38;;;;;;;12.07;4.80;;;;;;;6.92;65.65;100647.44;5013518;28;20057;-70
2022/09/10 00:34:06;;;;;;;10.52;5.10;;;;;;;6.91;65.82;100644.94;5014378;28;20123;-70
2022/09/10 00:36:37;;;;;;;12.18;4.97;;;;;;;6.92;66.01;100647.44;5015046;28;20058;-70
2022/09/10 00:39:07;;;;;;;14.73;5.60;;;;;;;6.87;65.42;100644.66;5014377;28;20081;-68
2022/09/10 00:41:36;;;;;;;17.77;5.28;;;;;;;6.87;65.56;100641.09;5014139;28;20053;-68
2022/09/10 00:44:27;;;;;;;24.80;5.38;;;;;;;6.87;66.13;100652.16;5014352;28;20057;-68
2022/09/10 00:46:58;;;;;;;14.07;5.18;;;;;;;6.85;66.18;100654.38;5014335;28;20053;-67
2022/09/10 00:49:32;;;;;;;28.08;7.68;;;;;;;6.89;65.67;100652.69;5014183;28;20060;-68
2022/09/10 00:52:00;;;;;;;8.65;4.70;;;;;;;6.90;65.56;100662.66;4999551;28;20149;-67
2022/09/10 00:54:29;;;;;;;11.43;5.13;;;;;;;6.89;66.07;100656.28;4994290;28;20096;-68
2022/09/10 00:57:02;;;;;;;17.20;5.07;;;;;;;6.87;65.93;100655.75;4994353;28;20054;-68
2022/09/10 00:59:29;;;;;;;20.85;5.95;;;;;;;6.88;65.64;100653.81;4993741;28;20046;-68
2022/09/10 01:01:58;;;;;;;11.57;5.03;;;;;;;6.87;65.64;100652.97;4994226;28;20042;-68
2022/09/10 01:04:27;;;;;;;13.30;5.03;;;;;;;6.88;66.08;100648.28;4994307;28;20050;-68
2022/09/10 01:06:55;;;;;;;16.98;5.55;;;;;;;6.84;66.15;100642.47;4992714;28;20058;-68
2022/09/10 01:09:23;;;;;;;17.25;5.22;;;;;;;6.82;65.88;100643.88;4994001;28;20052;-67
2022/09/10 01:12:08;;;;;;;15.95;4.80;;;;;;;6.81;66.57;100643.03;4993718;28;20060;-71
2022/09/10 01:14:44;;;;;;;12.40;5.28;;;;;;;6.80;66.29;100660.75;4993412;28;20046;-71
2022/09/10 01:17:35;;;;;;;19.27;5.55;;;;;;;6.76;66.20;100658.81;4994261;28;20101;-71
2022/09/10 01:20:16;;;;;;;14.15;5.18;;;;;;;6.65;66.39;100657.19;4993832;28;20090;-72
2022/09/10 01:22:56;;;;;;;15.07;4.82;;;;;;;6.64;66.58;100652.78;5008421;28;20112;-70
2022/09/10 01:25:49;;;;;;;22.92;5.30;;;;;;;6.66;66.25;100665.19;5013780;28;20476;-69
2022/09/10 01:28:36;;;;;;;12.73;5.45;;;;;;;6.68;66.16;100664.91;5012254;28;20524;-69
2022/09/10 01:31:17;;;;;;;10.52;4.90;;;;;;;6.68;66.51;100664.91;5013436;28;20195;-69
2022/09/10 01:34:01;;;;;;;15.00;4.72;;;;;;;6.65;66.39;100665.47;5013194;28;20073;-69
2022/09/10 01:36:33;;;;;;;12.73;4.75;;;;;;;6.65;66.79;100668.25;5013141;28;20060;-69
2022/09/10 01:39:01;;;;;;;9.95;4.97;;;;;;;6.65;66.91;100673.78;5013712;28;20053;-73
2022/09/10 01:41:29;;;;;;;12.70;5.38;;;;;;;6.67;66.93;100666.03;5013281;28;20041;-72
2022/09/10 01:43:55;;;;;;;12.85;5.07;;;;;;;6.70;66.83;100665.47;5012173;28;20547;-73
2022/09/10 01:46:40;;;;;;;15.02;5.88;;;;;;;6.68;66.51;100659.38;5013211;28;20050;-71
2022/09/10 01:49:39;;;;;;;12.43;5.88;;;;;;;6.64;66.92;100661.91;5013452;28;20559;-71
2022/09/10 01:52:17;;;;;;;11.32;5.82;;;;;;;6.62;66.85;100677.09;5013176;28;20140;-71
2022/09/10 01:55:09;;;;;;;15.63;5.45;;;;;;;6.61;67.04;100667.16;5012838;28;20054;-71
2022/09/10 01:57:35;;;;;;;14.55;5.32;;;;;;;6.58;66.38;100659.41;5012992;28;20100;-71
2022/09/10 02:00:12;;;;;;;14.10;5.63;;;;;;;6.60;66.64;100668.28;5012833;28;20069;-71
2022/09/10 02:02:50;;;;;;;12.48;5.65;;;;;;;6.58;66.67;100670.47;5012982;28;20100;-71
2022/09/10 02:05:22;;;;;;;15.35;5.30;;;;;;;6.54;67.19;100663.84;5012961;28;20057;-70
2022/09/10 02:07:54;;;;;;;12.38;5.25;;;;;;;6.57;67.21;100672.41;5012829;28;20132;-72
2022/09/10 02:10:22;;;;;;;15.63;5.95;;;;;;;6.54;67.30;100652.81;5012899;28;20042;-71
2022/09/10 02:12:49;;;;;;;9.68;5.05;;;;;;;6.55;66.62;100663.56;5012473;28;20084;-72
2022/09/10 02:15:18;;;;;;;19.83;4.95;;;;;;;6.53;67.15;100667.72;5012656;28;20042;-72
2022/09/10 02:17:46;;;;;;;18.17;5.93;;;;;;;6.54;66.88;100663.84;5012598;28;20053;-72
2022/09/10 02:20:13;;;;;;;12.55;5.32;;;;;;;6.56;67.35;100664.38;5012385;28;20049;-72
2022/09/10 02:22:49;;;;;;;16.85;5.03;;;;;;;6.56;67.29;100669.91;5011173;28;20054;-72
2022/09/10 02:25:17;;;;;;;13.27;5.70;;;;;;;6.52;67.24;100655.84;5012507;28;20049;-72
2022/09/10 02:27:44;;;;;;;13.00;5.07;;;;;;;6.54;66.74;100663.84;5011202;28;20057;-71
2022/09/10 02:30:11;;;;;;;13.25;5.25;;;;;;;6.56;66.90;100650.56;5012761;28;20096;-72
2022/09/10 02:32:38;;;;;;;13.57;5.65;;;;;;;6.57;67.35;100653.06;5013021;28;20058;-71
2022/09/10 02:35:06;;;;;;;17.90;5.80;;;;;;;6.55;67.28;100647.00;5012949;28;20088;-72
2022/09/10 02:37:32;;;;;;;14.80;5.50;;;;;;;6.55;67.35;100648.91;5011126;28;20054;-71
2022/09/10 02:39:59;;;;;;;14.68;5.28;;;;;;;6.51;66.87;100656.13;5012624;28;20049;-72
2022/09/10 02:42:26;;;;;;;12.68;5.53;;;;;;;6.49;67.40;100644.50;5011365;28;20067;-72
2022/09/10 02:44:53;;;;;;;17.17;5.57;;;;;;;6.50;66.98;100646.16;5012762;28;20563;-73
2022/09/10 02:47:20;;;;;;;13.95;5.78;;;;;;;6.45;67.31;100644.22;5012584;28;20417;-72
2022/09/10 02:49:47;;;;;;;12.52;6.15;;;;;;;6.42;67.02;100658.59;5012544;28;20144;-70
2022/09/10 02:52:14;;;;;;;18.20;6.07;;;;;;;6.40;67.11;100657.25;4995387;28;20061;-69
2022/09/10 02:54:41;;;;;;;12.73;5.68;;;;;;;6.39;66.96;100664.69;5013451;28;20056;-72
2022/09/10 02:57:07;;;;;;;16.40;5.88;;;;;;;6.37;67.75;100657.78;5014728;28;20509;-72
2022/09/10 02:59:34;;;;;;;11.50;6.00;;;;;;;6.39;67.39;100661.09;5015049;28;20502;-72
2022/09/10 03:02:01;;;;;;;11.20;5.03;;;;;;;6.40;67.75;100657.25;5001834;28;20501;-72
2022/09/10 03:04:28;;;;;;;15.80;6.65;;;;;;;6.41;67.59;100659.72;4996603;28;20046;-72
2022/09/10 03:06:55;;;;;;;16.17;6.07;;;;;;;6.44;66.77;100655.56;4996408;28;20054;-71
2022/09/10 03:09:22;;;;;;;12.15;5.60;;;;;;;6.47;67.15;100657.78;4996407;28;20073;-71
2022/09/10 03:11:50;;;;;;;13.10;7.32;;;;;;;6.48;67.40;100659.44;4995811;28;20469;-68
2022/09/10 03:14:19;;;;;;;12.13;5.72;;;;;;;6.45;67.28;100660.00;4996333;28;20521;-67
2022/09/10 03:16:47;;;;;;;9.52;5.47;;;;;;;6.43;66.76;100662.22;4995551;28;20050;-68
2022/09/10 03:19:14;;;;;;;18.45;6.40;;;;;;;6.44;67.51;100658.31;4996371;28;20105;-68
2022/09/10 03:21:41;;;;;;;15.25;6.72;;;;;;;6.44;67.38;100652.81;5009069;28;20042;-67
2022/09/10 03:24:09;;;;;;;13.18;6.90;;;;;;;6.42;67.60;100655.84;5015761;28;20049;-68
2022/09/10 03:26:42;;;;;;;17.13;5.85;;;;;;;6.43;67.18;100659.44;5015998;28;20049;-68
2022/09/10 03:29:09;;;;;;;12.27;5.75;;;;;;;6.44;67.58;100663.84;4998755;28;20049;-69
2022/09/10 03:31:36;;;;;;;12.43;5.97;;;;;;;6.47;67.13;100657.78;5014061;28;20398;-68
2022/09/10 03:34:03;;;;;;;23.15;5.72;;;;;;;6.54;67.57;100661.09;5015714;28;20050;-69
2022/09/10 03:36:33;;;;;;;13.25;5.90;;;;;;;6.58;67.07;100659.41;5015594;28;20058;-68
2022/09/10 03:38:59;;;;;;;11.95;5.00;;;;;;;6.63;67.53;100663.00;5015676;28;20057;-71
2022/09/10 03:41:27;;;;;;;9.05;5.32;;;;;;;6.66;67.00;100656.91;5015329;28;20513;-72
2022/09/10 03:43:57;;;;;;;17.20;6.43;;;;;;;6.72;67.47;100661.31;5013931;28;20104;-72
2022/09/10 03:46:24;;;;;;;13.93;5.40;;;;;;;6.74;67.44;100661.03;5015387;28;20054;-72
2022/09/10 03:48:51;;;;;;;12.23;5.38;;;;;;;6.76;67.11;100658.81;5015333;28;20096;-71
2022/09/10 03:51:23;;;;;;;;;;;;;;;6.74;67.30;100664.63;5015518;28;20073;-72
2022/09/10 03:53:50;;;;;;;16.20;5.78;;;;;;;6.79;66.78;100666.56;5015107;28;20455;-73
2022/09/10 03:56:19;;;;;;;16.58;5.93;;;;;;;6.86;66.63;100667.91;5015398;28;20517;-73
2022/09/10 03:58:48;;;;;;;11.38;5.63;;;;;;;6.92;67.34;100663.19;5015238;28;20058;-72
2022/09/10 04:01:16;;;;;;;13.52;6.10;;;;;;;6.95;66.80;100665.41;5000747;28;20141;-72
2022/09/10 04:03:43;;;;;;;16.98;6.75;;;;;;;6.96;67.01;100661.53;4994150;28;20477;-72
2022/09/10 04:06:15;;;;;;;18.55;7.38;;;;;;;7.03;67.05;100662.06;4995285;28;20486;-72
2022/09/10 04:08:45;;;;;;;18.58;6.85;;;;;;;7.08;66.93;100659.28;4995714;28;20133;-73
2022/09/10 04:11:12;;;;;;;17.20;7.28;;;;;;;7.16;66.99;100662.28;4994008;28;20493;-71
2022/09/10 04:13:39;;;;;;;20.73;6.53;;;;;;;7.24;66.70;100660.84;4995287;28;20053;-71
2022/09/10 04:16:06;;;;;;;17.42;6.80;;;;;;;7.30;66.60;100668.03;4994923;28;20050;-71
2022/09/10 04:18:33;;;;;;;13.70;6.22;;;;;;;7.39;66.33;100666.31;4995391;28;20060;-70
2022/09/10 04:21:01;;;;;;;17.35;6.60;;;;;;;7.48;66.23;100661.84;5002507;28;20092;-70
2022/09/10 04:23:28;;;;;;;18.08;7.60;;;;;;;7.54;66.22;100666.25;5015178;28;20057;-70
2022/09/10 04:25:55;;;;;;;21.90;7.05;;;;;;;7.62;66.02;100659.28;5014847;28;20154;-70
2022/09/10 04:28:23;;;;;;;13.77;6.15;;;;;;;7.69;65.75;100660.59;5014726;28;20473;-70
2022/09/10 04:30:50;;;;;;;11.90;6.30;;;;;;;7.77;65.52;100660.00;5014542;28;20046;-70
2022/09/10 04:33:17;;;;;;;16.40;6.72;;;;;;;7.89;65.51;100665.19;5014725;28;20045;-70
2022/09/10 04:35:44;;;;;;;18.50;6.28;;;;;;;7.97;64.92;100662.66;5014315;28;20073;-67
2022/09/10 04:38:11;;;;;;;15.35;7.15;;;;;;;8.06;64.75;100676.72;5012832;28;20560;-68
2022/09/10 04:40:38;;;;;;;16.00;7.20;;;;;;;8.13;64.58;100677.19;5013430;28;20041;-68
2022/09/10 04:43:05;;;;;;;20.60;6.32;;;;;;;8.18;63.98;100669.69;5013953;28;20060;-67
2022/09/10 04:45:33;;;;;;;17.35;6.20;;;;;;;8.29;63.66;100673.22;5014309;28;20054;-67
2022/09/10 04:48:00;;;;;;;12.57;6.38;;;;;;;8.39;63.24;100676.75;5014156;28;20073;-67
2022/09/10 04:50:32;;;;;;;22.23;6.47;;;;;;;8.46;62.77;100682.78;5001295;28;20042;-69
2022/09/10 04:53:00;;;;;;;12.10;5.97;;;;;;;8.55;62.59;100680.19;4993122;28;20047;-68
2022/09/10 04:55:29;;;;;;;20.70;7.63;;;;;;;8.64;61.92;100670.94;4994438;28;20054;-69
2022/09/10 04:57:55;;;;;;;15.90;5.95;;;;;;;8.71;61.63;100668.66;4994240;28;20057;-68
2022/09/10 05:00:22;;;;;;;13.40;5.78;;;;;;;8.82;60.38;100667.44;4994373;28;20057;-67
2022/09/10 05:02:49;;;;;;;13.88;6.30;;;;;;;8.90;59.88;100672.34;4994069;28;20050;-67
2022/09/10 05:05:16;;;;;;;15.02;5.75;;;;;;;8.99;59.45;100667.81;4994327;28;20417;-69
2022/09/10 05:07:43;;;;;;;17.48;6.03;;;;;;;9.07;58.72;100672.72;4993799;28;20050;-68
2022/09/10 05:10:10;;;;;;;12.90;5.68;;;;;;;9.16;58.94;100659.84;4992579;28;20133;-68
2022/09/10 05:12:39;;;;;;;11.73;5.28;;;;;;;9.23;57.69;100668.63;4992024;28;20050;-69
2022/09/10 05:15:07;;;;;;;18.15;6.80;;;;;;;9.32;57.21;100668.78;4993982;28;20453;-68
2022/09/10 05:17:34;;;;;;;13.88;6.13;;;;;;;9.42;56.80;100673.38;4993526;28;20453;-68
2022/09/10 05:20:03;;;;;;;13.10;5.68;;;;;;;9.51;57.02;100671.59;4994051;28;20066;-68
2022/09/10 05:22:29;;;;;;;8.32;5.13;;;;;;;9.61;56.19;100677.00;5013555;28;20108;-67
2022/09/10 05:25:06;;;;;;;10.38;5.20;;;;;;;9.68;55.75;100671.94;5013545;28;20080;-70
2022/09/10 05:27:33;;;;;;;13.32;5.00;;;;;;;9.77;55.93;100673.72;5013821;28;20108;-69
2022/09/10 05:30:00;;;;;;;16.08;5.03;;;;;;;9.86;55.77;100673.88;5013436;28;20064;-68
2022/09/10 05:32:31;;;;;;;10.80;4.40;;;;;;;10.04;54.96;100676.63;5013197;28;20041;-68
2022/09/10 05:34:58;;;;;;;22.93;5.20;;;;;;;10.28;54.18;100682.16;5013742;28;20046;-68
2022/09/10 05:37:25;;;;;;;13.60;5.10;;;;;;;10.39;54.30;100672.50;5013591;28;20307;-68
2022/09/10 05:39:52;;;;;;;6.93;4.53;;;;;;;10.47;53.91;100680.13;5013145;28;20567;-68
2022/09/10 05:42:20;;;;;;;7.97;4.45;;;;;;;10.74;53.46;100683.81;5013290;28;20501;-68
2022/09/10 05:44:47;;;;;;;11.07;5.15;;;;;;;10.85;53.13;100676.94;5013267;28;20107;-69
2022/09/10 05:47:14;;;;;;;10.52;4.50;;;;;;;10.97;52.33;100673.66;5013490;28;20073;-68
2022/09/10 05:49:41;;;;;;;9.98;4.82;;;;;;;11.19;51.70;100672.97;5012925;28;20049;-68
2022/09/10 05:52:08;;;;;;;13.25;4.68;;;;;;;11.33;51.50;100666.22;5012962;28;20112;-68
2022/09/10 05:54:35;;;;;;;9.45;4.70;;;;;;;11.54;50.90;100667.44;5013120;28;20061;-69
2022/09/10 05:57:02;;;;;;;9.35;4.72;;;;;;;11.70;50.75;100668.81;5013094;28;20148;-68
2022/09/10 05:59:29;;;;;;;15.90;6.78;;;;;;;12.26;49.76;100669.13;5007907;28;20050;-69
2022/09/10 06:01:56;;;;;;;20.08;5.95;;;;;;;13.86;46.57;100663.81;4993321;28;20050;-69
2022/09/10 06:04:24;;;;;;;14.18;5.55;;;;;;;14.41;45.02;100664.03;4993263;28;20058;-67
2022/09/10 06:06:50;;;;;;;17.30;5.72;;;;;;;14.22;46.00;100655.13;4993188;28;20058;-68
2022/09/10 06:09:26;;;;;;;13.98;5.75;;;;;;;15.85;42.69;100659.88;4993247;28;20116;-69
2022/09/10 06:11:53;;;;;;;12.60;5.63;;;;;;;17.98;38.77;100659.50;4992961;28;20133;-70
2022/09/10 06:14:20;;;;;;;11.00;5.28;;;;;;;18.75;37.28;100659.03;4993698;28;20050;-70
2022/09/10 06:16:48;;;;;;;12.40;4.85;;;;;;;18.57;37.18;100654.88;5005434;28;20528;-71
2022/09/10 06:19:15;;;;;;;22.15;6.18;;;;;;;18.71;36.51;100655.28;5013034;28;20058;-71
2022/09/10 06:21:42;;;;;;;13.15;5.03;;;;;;;17.72;37.95;100659.06;5012736;28;20100;-71
2022/09/10 06:24:09;;;;;;;14.38;4.28;;;;;;;16.66;39.35;100662.16;5011262;28;20585;-71
2022/09/10 06:26:36;;;;;;;13.38;5.45;;;;;;;16.56;39.55;100656.97;5012865;28;20576;-69
2022/09/10 06:29:04;;;;;;;13.45;4.07;;;;;;;17.50;37.61;100657.53;5011263;28;20049;-69
2022/09/10 06:31:30;;;;;;;18.55;5.57;;;;;;;18.84;35.27;100656.03;5016715;28;20046;-69
2022/09/10 06:33:57;;;;;;;20.65;6.60;;;;;;;19.48;34.21;100656.59;5017066;28;20108;-69
2022/09/10 06:36:26;;;;;;;11.13;4.63;;;;;;;19.74;33.32;100653.97;5016883;28;20057;-71
2022/09/10 06:38:56;;;;;;;17.80;4.75;;;;;;;18.24;35.45;100655.09;5016624;28;20064;-69
2022/09/10 06:41:23;;;;;;;14.05;4.55;;;;;;;16.93;37.47;100661.56;5015066;28;20054;-71
2022/09/10 06:43:50;;;;;;;9.82;3.45;;;;;;;16.29;38.71;100653.56;5016720;28;20398;-70
2022/09/10 06:46:18;;;;;;;13.00;4.68;;;;;;;15.71;39.15;100650.03;5016317;28;20120;-70
2022/09/10 06:49:05;;;;;;;20.83;4.03;;;;;;;15.20;39.10;100662.34;5014429;28;20077;-71
2022/09/10 06:51:32;;;;;;;14.18;3.47;;;;;;;15.45;39.26;100655.81;4996889;28;20046;-71
2022/09/10 06:54:01;;;;;;;13.93;3.97;;;;;;;15.41;38.46;100646.44;4996760;28;20061;-70
2022/09/10 06:56:29;;;;;;;13.43;3.95;;;;;;;15.03;39.30;100655.97;4996441;28;20149;-71
2022/09/10 06:58:58;;;;;;;14.60;3.45;;;;;;;14.87;39.48;100655.72;4996693;28;20082;-71
2022/09/10 07:01:28;;;;;;;8.45;2.58;;;;;;;15.45;38.18;100650.19;4996599;28;20054;-70
2022/09/10 07:03:59;;;;;;;8.30;2.88;;;;;;;16.18;36.99;100655.16;4996580;28;20308;-71
2022/09/10 07:06:32;;;;;;;10.70;2.10;;;;;;;15.88;37.16;100647.13;4996209;28;20584;-71
2022/09/10 07:08:59;;;;;;;5.25;2.35;;;;;;;15.07;38.59;100645.75;4995394;28;20509;-71
2022/09/10 07:11:29;;;;;;;6.05;1.90;;;;;;;14.56;39.52;100649.50;4995050;28;20050;-70
2022/09/10 07:13:56;;;;;;;5.78;1.50;;;;;;;14.30;39.84;100651.53;4996567;28;20141;-71
2022/09/10 07:16:25;;;;;;;4.93;1.83;;;;;;;14.06;39.83;100656.75;4996696;28;20172;-70
2022/09/10 07:18:56;;;;;;;3.70;1.50;;;;;;;13.91;40.02;100655.28;5002929;28;20046;-70
2022/09/10 07:21:26;;;;;;;2.33;0.88;;;;;;;13.72;39.88;100646.38;5015649;28;20046;-71
2022/09/10 07:23:57;;;;;;;;;;;;;;;13.56;40.24;100649.97;5016124;28;20069;-71
2022/09/10 07:26:24;;;;;;;4.72;1.77;;;;;;;13.52;40.32;100640.56;5016090;28;19975;-71
2022/09/10 07:28:52;;;;;;;4.78;1.77;;;;;;;13.67;40.44;100643.72;5015770;28;20153;-71
2022/09/10 07:31:22;;;;;;;5.43;2.00;;;;;;;14.14;39.69;100648.38;5015897;28;20409;-70
2022/09/10 07:33:50;;;;;;;5.07;1.77;;;;;;;15.36;38.11;100646.59;5014446;28;20052;-70
2022/09/10 07:36:17;;;;;;;5.97;1.88;;;;;;;17.51;34.75;100641.50;5015231;28;20260;-70
2022/09/10 07:38:44;;;;;;;3.90;1.60;;;;;;;19.46;31.53;100637.19;5014350;28;20527;-70
2022/09/10 07:41:13;;;;;;;14.73;2.00;;;;;;;20.71;29.83;100640.44;4995213;28;20538;-70
2022/09/10 07:43:44;;;;;;;7.78;1.55;;;;;;;20.39;30.15;100632.47;4995813;28;20093;-70
2022/09/10 07:46:19;;;;;;;5.40;1.13;;;;;;;19.22;31.35;100645.78;4994219;28;20046;-70
2022/09/10 07:48:47;;;;;;;3.45;1.35;;;;;;;17.86;33.46;100635.00;4994604;28;20065;-69
2022/09/10 07:51:18;;;;;;;7.38;1.40;;;;;;;16.90;35.00;100622.91;4995633;28;20050;-70
2022/09/10 07:53:45;;;;;;;2.50;1.05;;;;;;;16.49;35.68;100635.06;5009590;28;20069;-69
2022/09/10 07:56:16;;;;;;;3.50;1.52;;;;;;;15.93;36.41;100633.72;5015105;28;20050;-71
2022/09/10 07:58:43;;;;;;;3.70;1.92;;;;;;;15.93;36.24;100630.09;5015097;28;20104;-71
2022/09/10 08:01:11;;;;;;;6.20;1.88;;;;;;;15.91;36.09;100629.63;5015104;28;20050;-70
2022/09/10 08:03:39;;;;;;;3.40;1.60;;;;;;;16.47;35.15;100617.75;5015395;28;20520;-72
2022/09/10 08:06:07;;;;;;;3.92;1.40;;;;;;;17.05;34.32;100619.41;5015254;28;20416;-69
2022/09/10 08:08:37;;;;;;;6.65;1.25;;;;;;;17.01;34.21;100618.47;5014812;28;20045;-69
2022/09/10 08:11:08;;;;;;;2.35;1.27;;;;;;;16.81;34.62;100619.38;5015221;28;20453;-69
2022/09/10 08:13:40;;;;;;;3.80;2.10;;;;;;;19.10;31.40;100616.88;5014877;28;20390;-70
2022/09/10 08:16:19;;;;;;;3.92;1.40;;;;;;;21.05;28.08;100607.56;5014466;28;20485;-70
2022/09/10 08:18:47;;;;;;;2.03;1.05;;;;;;;20.93;28.49;100611.34;5020361;28;20417;-71
2022/09/10 08:21:15;;;;;;;3.20;1.55;;;;;;;21.57;27.82;100602.81;5034350;28;20524;-70
2022/09/10 08:23:49;;;;;;;7.32;1.50;;;;;;;23.26;25.70;100599.31;5034290;28;20060;-69
2022/09/10 08:26:17;;;;;;;3.58;1.75;;;;;;;25.22;24.09;100593.81;5034334;28;20424;-70
2022/09/10 08:28:44;;;;;;;6.68;1.70;;;;;;;28.59;20.96;100593.94;5034241;28;20464;-70
2022/09/10 08:31:13;;;;;;;6.60;1.30;;;;;;;32.34;17.24;100588.19;5034114;28;20053;-70
2022/09/10 08:33:40;;;;;;;3.42;1.80;;;;;;;35.44;14.88;100579.75;5033301;28;20057;-71
2022/09/10 08:36:09;;;;;;;5.03;1.77;;;;;;;38.00;12.80;100589.97;5034479;28;20409;-71
2022/09/10 08:38:38;;;;;;;6.13;1.85;;;;;;;39.85;11.51;100584.47;5034073;28;20053;-70
2022/09/10 08:41:11;;;;;;;3.30;1.40;;;;;;;41.64;9.96;100588.78;5034385;28;20049;-70
2022/09/10 08:44:18;;;;;;;5.10;1.60;;;;;;;43.19;8.82;100579.28;5014512;28;20556;-70
2022/09/10 08:46:54;;;;;;;4.05;1.55;;;;;;;44.43;8.22;100569.09;5007036;28;20156;-69
2022/09/10 08:49:36;;;;;;;5.97;1.60;;;;;;;45.41;7.55;100568.97;5014342;28;20104;-71
2022/09/10 08:52:09;;;;;;;8.35;1.80;;;;;;;45.67;7.20;100563.34;5011642;28;20060;-71
2022/09/10 08:54:44;;;;;;;4.32;1.50;;;;;;;45.80;6.68;100562.69;5014222;28;20539;-71
2022/09/10 08:57:46;;;;;;;4.03;1.33;;;;;;;45.05;6.90;100564.47;4996916;28;20049;-73
2022/09/10 09:00:22;;;;;;;2.97;1.23;;;;;;;45.15;6.67;100559.84;5013850;28;20104;-71
2022/09/10 09:03:14;;;;;;;3.63;1.50;;;;;;;45.41;6.11;100560.16;5013945;28;20050;-71
2022/09/10 09:05:54;;;;;;;5.65;1.50;;;;;;;45.64;6.31;100564.44;5013625;28;20042;-69
2022/09/10 09:08:31;;;;;;;6.80;1.65;;;;;;;46.38;5.80;100549.91;5013880;28;20493;-71
2022/09/10 09:11:19;;;;;;;3.13;1.40;;;;;;;46.99;5.78;100548.22;5013861;28;20069;-73
2022/09/10 09:13:53;;;;;;;6.22;1.65;;;;;;;47.34;5.11;100544.94;5013810;28;20053;-72
2022/09/10 09:16:23;;;;;;;15.07;2.95;;;;;;;47.76;5.11;100543.88;5012275;28;20050;-71
2022/09/10 09:18:59;;;;;;;4.63;1.58;;;;;;;47.84;4.97;100541.84;5013931;28;20451;-70
2022/09/10 09:21:50;;;;;;;4.82;1.50;;;;;;;48.02;5.22;100549.00;5013354;28;20050;-71
2022/09/10 09:24:24;;;;;;;2.60;1.70;;;;;;;48.05;4.61;100539.81;5013735;28;20416;-71
2022/09/10 09:26:56;;;;;;;6.88;1.90;;;;;;;48.02;4.43;100540.94;5013512;28;20120;-71
2022/09/10 09:29:31;;;;;;;3.20;1.30;;;;;;;47.60;4.14;100534.00;5013868;28;20503;-71
2022/09/10 09:32:01;;;;;;;3.63;1.52;;;;;;;47.81;4.76;100534.13;5013374;28;20050;-72
2022/09/10 09:34:42;;;;;;;3.15;1.60;;;;;;;47.53;4.35;100525.78;5013225;28;20057;-72
2022/09/10 09:37:25;;;;;;;3.10;1.40;;;;;;;44.20;5.72;100531.59;5013643;28;20046;-70
2022/09/10 09:40:01;;;;;;;6.05;1.30;;;;;;;38.01;8.94;100533.47;5013614;28;20053;-70
2022/09/10 09:42:47;;;;;;;5.07;1.48;;;;;;;32.37;12.06;100530.50;5012952;28;20062;-70
2022/09/10 09:45:27;;;;;;;8.07;1.55;;;;;;;29.30;14.21;100529.41;5013187;28;20066;-70
2022/09/10 09:47:54;;;;;;;4.15;1.50;;;;;;;27.52;16.18;100532.56;5013305;28;20042;-70
2022/09/10 09:50:21;;;;;;;16.58;4.47;;;;;;;25.69;17.59;100518.53;5013317;28;20053;-70
2022/09/10 09:52:53;;;;;;;4.13;1.60;;;;;;;24.29;18.79;100519.19;5012134;28;20056;-70
2022/09/10 09:55:29;;;;;;;3.10;1.45;;;;;;;23.01;20.42;100525.25;5013552;28;20108;-70
2022/09/10 09:58:18;;;;;;;17.77;5.88;;;;;;;22.27;21.21;100520.81;5013063;28;20088;-71
2022/09/10 10:00:46;;;;;;;8.80;1.63;;;;;;;21.73;21.78;100509.97;5013083;28;20502;-71
2022/09/10 10:03:24;;;;;;;7.53;1.55;;;;;;;21.23;22.57;100506.81;5012408;28;20499;-70
2022/09/10 10:06:01;;;;;;;9.98;1.65;;;;;;;20.60;23.26;100511.38;5013229;28;20092;-70
2022/09/10 10:08:42;;;;;;;3.47;1.48;;;;;;;20.16;23.90;100501.63;5013280;28;20050;-71
2022/09/10 10:11:16;;;;;;;3.00;1.42;;;;;;;19.71;24.60;100502.25;5012881;28;20080;-73
2022/09/10 10:13:45;;;;;;;3.70;1.63;;;;;;;19.48;24.72;100507.00;5012675;28;20045;-71
2022/09/10 10:16:32;;;;;;;11.77;1.60;;;;;;;19.28;25.24;100503.31;5011811;28;20050;-69
2022/09/10 10:18:59;;;;;;;4.65;1.73;;;;;;;18.92;25.67;100502.78;5011557;28;20046;-72
2022/09/10 10:21:31;;;;;;;4.57;1.52;;;;;;;18.74;26.07;100496.69;5012569;28;20050;-70
2022/09/10 10:23:59;;;;;;;3.70;1.63;;;;;;;18.58;26.06;100498.69;5012736;28;20073;-70
2022/09/10 10:26:29;;;;;;;10.27;2.53;;;;;;;18.48;26.31;100492.78;5012844;28;20062;-70
2022/09/10 10:29:14;;;;;;;11.05;1.50;;;;;;;18.36;26.67;100504.91;5013107;28;20057;-70
2022/09/10 10:31:45;;;;;;;6.20;1.40;;;;;;;18.27;26.79;100497.81;5012960;28;20092;-70
2022/09/10 10:34:52;;;;;;;6.40;2.45;;;;;;;18.27;27.09;100493.81;5012500;28;20168;-70
2022/09/10 10:37:44;;;;;;;10.05;1.80;;;;;;;18.31;27.15;100490.25;5012672;28;20501;-71
2022/09/10 10:40:17;;;;;;;6.40;1.58;;;;;;;18.20;27.36;100487.97;5007240;28;20116;-73
2022/09/10 10:42:44;;;;;;;9.35;2.03;;;;;;;18.07;27.65;100488.41;5012348;28;20050;-71
2022/09/10 10:45:53;;;;;;;7.00;1.73;;;;;;;17.97;27.71;100477.69;5013024;28;20081;-70
2022/09/10 10:48:58;;;;;;;3.80;1.77;;;;;;;17.86;27.90;100468.91;5008596;28;20096;-71
2022/09/10 10:51:38;;;;;;;5.38;1.70;;;;;;;17.71;28.23;100468.88;5012514;28;20038;-70
2022/09/10 10:54:15;;;;;;;3.78;1.60;;;;;;;17.55;28.51;100459.53;4995467;28;20335;-72
2022/09/10 10:57:09;;;;;;;4.78;1.60;;;;;;;17.59;28.40;100454.84;5012199;28;20057;-71
2022/09/10 10:59:39;;;;;;;5.88;1.35;;;;;;;17.56;28.21;100447.91;5012808;28;20050;-70
2022/09/10 11:02:26;;;;;;;7.95;1.38;;;;;;;17.58;28.54;100444.75;5012867;28;20437;-70
2022/09/10 11:04:57;;;;;;;5.25;2.53;;;;;;;17.50;28.56;100445.72;5012907;28;20145;-69
2022/09/10 11:07:41;;;;;;;7.18;1.67;;;;;;;17.41;28.50;100456.28;5012190;28;20107;-68
2022/09/10 11:10:22;;;;;;;5.10;1.75;;;;;;;17.37;28.62;100447.72;5012289;28;20050;-68
2022/09/10 11:13:13;;;;;;;6.97;1.85;;;;;;;17.30;28.91;100441.91;5011965;28;20450;-68
2022/09/10 11:15:51;;;;;;;2.67;1.48;;;;;;;17.16;28.83;100443.44;5013326;28;20136;-70
2022/09/10 11:18:52;;;;;;;4.07;1.80;;;;;;;17.19;28.79;100431.47;5015339;28;20093;-69
2022/09/10 11:21:38;;;;;;;4.18;1.60;;;;;;;17.17;29.00;100433.84;5015851;28;20054;-69
2022/09/10 11:24:17;;;;;;;5.95;2.45;;;;;;;17.09;28.94;100423.53;5016219;28;20049;-70
2022/09/10 11:27:07;;;;;;;3.97;1.73;;;;;;;16.90;29.02;100420.53;5015818;28;20508;-70
2022/09/10 11:29:56;;;;;;;3.00;1.55;;;;;;;16.84;29.16;100433.19;5006909;28;20066;-71
2022/09/10 11:32:44;;;;;;;9.82;1.77;;;;;;;16.91;29.22;100413.75;5015478;28;20049;-69
2022/09/10 11:35:18;;;;;;;4.07;1.67;;;;;;;16.91;29.45;100410.94;5014804;28;20056;-70
2022/09/10 11:38:17;;;;;;;8.27;1.55;;;;;;;16.94;29.43;100404.59;5015605;28;20513;-70
2022/09/10 11:41:07;;;;;;;4.05;1.80;;;;;;;16.95;29.45;100409.03;5014078;28;20100;-71
2022/09/10 11:43:41;;;;;;;4.88;1.67;;;;;;;16.95;29.68;100406.22;5014432;28;20038;-70
2022/09/10 11:46:35;;;;;;;9.25;2.03;;;;;;;16.96;29.75;100400.25;5015377;28;20072;-69
2022/09/10 11:49:14;;;;;;;3.70;1.58;;;;;;;16.92;29.66;100402.13;5015087;28;20046;-69